sensor_id;sensor_type;location;lat;lon;timestamp;P1;durP1;ratioP1;P2;durP2;ratioP2
56997;SDS011;42890;44.244;22.530;2023-08-08T00:01:39;5.60;;;3.53;;
56997;SDS011;42890;44.244;22.530;2023-08-08T00:04:08;3.30;;;2.75;;
56997;SDS011;42890;44.244;22.530;2023-08-08T00:06:35;3.75;;;3.30;;
56997;SDS011;42890;44.244;22.530;2023-08-08T00:09:01;3.10;;;2.83;;
56997;SDS011;42890;44.244;22.530;2023-08-08T00:11:28;4.18;;;2.83;;
56997;SDS011;42890;44.244;22.530;2023-08-08T00:13:55;3.50;;;3.20;;
56997;SDS011;42890;44.244;22.530;2023-08-08T00:16:21;4.18;;;3.20;;
56997;SDS011;42890;44.244;22.530;2023-08-08T00:18:47;2.92;;;2.72;;
56997;SDS011;42890;44.244;22.530;2023-08-08T00:21:15;2.90;;;2.60;;
56997;SDS011;42890;44.244;22.530;2023-08-08T00:23:41;3.75;;;2.45;;
56997;SDS011;42890;44.244;22.530;2023-08-08T00:26:08;4.13;;;2.85;;
56997;SDS011;42890;44.244;22.530;2023-08-08T00:28:34;3.10;;;2.85;;
56997;SDS011;42890;44.244;22.530;2023-08-08T00:31:00;3.13;;;2.75;;
56997;SDS011;42890;44.244;22.530;2023-08-08T00:33:26;4.88;;;2.72;;
56997;SDS011;42890;44.244;22.530;2023-08-08T00:35:52;3.90;;;2.72;;
56997;SDS011;42890;44.244;22.530;2023-08-08T00:38:18;3.55;;;2.97;;
56997;SDS011;42890;44.244;22.530;2023-08-08T00:40:44;2.90;;;2.70;;
56997;SDS011;42890;44.244;22.530;2023-08-08T00:43:11;3.55;;;2.70;;
56997;SDS011;42890;44.244;22.530;2023-08-08T00:45:37;5.18;;;2.80;;
56997;SDS011;42890;44.244;22.530;2023-08-08T00:48:04;2.72;;;2.60;;
56997;SDS011;42890;44.244;22.530;2023-08-08T00:50:30;4.20;;;2.58;;
56997;SDS011;42890;44.244;22.530;2023-08-08T00:52:56;2.55;;;2.33;;
56997;SDS011;42890;44.244;22.530;2023-08-08T00:55:23;7.13;;;2.40;;
56997;SDS011;42890;44.244;22.530;2023-08-08T00:57:49;3.65;;;2.70;;
56997;SDS011;42890;44.244;22.530;2023-08-08T01:00:15;3.60;;;2.30;;
56997;SDS011;42890;44.244;22.530;2023-08-08T01:02:42;2.35;;;2.15;;
56997;SDS011;42890;44.244;22.530;2023-08-08T01:05:08;2.60;;;2.40;;
56997;SDS011;42890;44.244;22.530;2023-08-08T01:10:15;5.13;;;2.30;;
56997;SDS011;42890;44.244;22.530;2023-08-08T01:12:45;4.03;;;2.30;;
56997;SDS011;42890;44.244;22.530;2023-08-08T01:15:12;2.45;;;2.25;;
56997;SDS011;42890;44.244;22.530;2023-08-08T01:17:38;3.63;;;2.33;;
56997;SDS011;42890;44.244;22.530;2023-08-08T01:20:05;9.52;;;2.47;;
56997;SDS011;42890;44.244;22.530;2023-08-08T01:22:36;5.25;;;2.20;;
56997;SDS011;42890;44.244;22.530;2023-08-08T01:25:02;3.42;;;2.20;;
56997;SDS011;42890;44.244;22.530;2023-08-08T01:27:30;5.22;;;2.75;;
56997;SDS011;42890;44.244;22.530;2023-08-08T01:29:56;2.95;;;2.40;;
56997;SDS011;42890;44.244;22.530;2023-08-08T01:32:22;2.25;;;2.10;;
56997;SDS011;42890;44.244;22.530;2023-08-08T01:34:48;2.63;;;2.40;;
56997;SDS011;42890;44.244;22.530;2023-08-08T01:37:17;4.85;;;2.72;;
56997;SDS011;42890;44.244;22.530;2023-08-08T01:39:43;2.60;;;2.40;;
56997;SDS011;42890;44.244;22.530;2023-08-08T01:42:11;5.10;;;2.38;;
56997;SDS011;42890;44.244;22.530;2023-08-08T01:44:38;4.68;;;2.83;;
56997;SDS011;42890;44.244;22.530;2023-08-08T01:47:05;2.88;;;2.58;;
56997;SDS011;42890;44.244;22.530;2023-08-08T01:49:31;2.95;;;2.70;;
56997;SDS011;42890;44.244;22.530;2023-08-08T01:51:58;2.10;;;2.00;;
56997;SDS011;42890;44.244;22.530;2023-08-08T01:54:24;2.17;;;1.98;;
56997;SDS011;42890;44.244;22.530;2023-08-08T01:56:50;2.42;;;2.20;;
56997;SDS011;42890;44.244;22.530;2023-08-08T01:59:16;4.05;;;2.45;;
56997;SDS011;42890;44.244;22.530;2023-08-08T02:01:42;2.20;;;2.00;;
56997;SDS011;42890;44.244;22.530;2023-08-08T02:04:08;6.03;;;2.45;;
56997;SDS011;42890;44.244;22.530;2023-08-08T02:06:34;4.03;;;2.25;;
56997;SDS011;42890;44.244;22.530;2023-08-08T02:09:01;2.50;;;2.20;;
56997;SDS011;42890;44.244;22.530;2023-08-08T02:11:27;2.38;;;2.20;;
56997;SDS011;42890;44.244;22.530;2023-08-08T02:13:53;2.70;;;2.25;;
56997;SDS011;42890;44.244;22.530;2023-08-08T02:16:19;4.03;;;2.35;;
56997;SDS011;42890;44.244;22.530;2023-08-08T02:18:45;3.60;;;2.60;;
56997;SDS011;42890;44.244;22.530;2023-08-08T02:21:11;6.05;;;1.90;;
56997;SDS011;42890;44.244;22.530;2023-08-08T02:23:37;2.58;;;2.38;;
56997;SDS011;42890;44.244;22.530;2023-08-08T02:26:03;3.42;;;2.33;;
56997;SDS011;42890;44.244;22.530;2023-08-08T02:28:29;2.13;;;2.03;;
56997;SDS011;42890;44.244;22.530;2023-08-08T02:30:56;4.63;;;2.25;;
56997;SDS011;42890;44.244;22.530;2023-08-08T02:33:22;2.00;;;1.90;;
56997;SDS011;42890;44.244;22.530;2023-08-08T02:35:48;5.47;;;2.42;;
56997;SDS011;42890;44.244;22.530;2023-08-08T02:38:14;2.65;;;2.45;;
56997;SDS011;42890;44.244;22.530;2023-08-08T02:40:40;2.28;;;2.08;;
56997;SDS011;42890;44.244;22.530;2023-08-08T02:43:06;3.40;;;2.70;;
56997;SDS011;42890;44.244;22.530;2023-08-08T02:45:34;5.05;;;2.88;;
56997;SDS011;42890;44.244;22.530;2023-08-08T02:48:00;3.33;;;3.13;;
56997;SDS011;42890;44.244;22.530;2023-08-08T02:50:26;6.35;;;3.45;;
56997;SDS011;42890;44.244;22.530;2023-08-08T02:52:52;3.80;;;3.50;;
56997;SDS011;42890;44.244;22.530;2023-08-08T02:55:18;3.25;;;2.97;;
56997;SDS011;42890;44.244;22.530;2023-08-08T02:57:45;3.88;;;3.63;;
56997;SDS011;42890;44.244;22.530;2023-08-08T03:00:11;8.00;;;3.45;;
56997;SDS011;42890;44.244;22.530;2023-08-08T03:02:37;4.00;;;3.70;;
56997;SDS011;42890;44.244;22.530;2023-08-08T03:05:04;3.88;;;3.58;;
56997;SDS011;42890;44.244;22.530;2023-08-08T03:07:30;4.22;;;3.80;;
56997;SDS011;42890;44.244;22.530;2023-08-08T03:09:56;3.63;;;3.30;;
56997;SDS011;42890;44.244;22.530;2023-08-08T03:12:23;4.95;;;3.25;;
56997;SDS011;42890;44.244;22.530;2023-08-08T03:14:49;4.45;;;3.35;;
56997;SDS011;42890;44.244;22.530;2023-08-08T03:17:15;3.60;;;2.83;;
56997;SDS011;42890;44.244;22.530;2023-08-08T03:19:41;3.92;;;3.33;;
56997;SDS011;42890;44.244;22.530;2023-08-08T03:22:07;6.07;;;3.67;;
56997;SDS011;42890;44.244;22.530;2023-08-08T03:24:33;5.47;;;3.55;;
56997;SDS011;42890;44.244;22.530;2023-08-08T03:26:59;3.67;;;3.03;;
56997;SDS011;42890;44.244;22.530;2023-08-08T03:29:25;5.35;;;2.90;;
56997;SDS011;42890;44.244;22.530;2023-08-08T03:31:51;3.70;;;3.08;;
56997;SDS011;42890;44.244;22.530;2023-08-08T03:34:18;3.20;;;2.17;;
56997;SDS011;42890;44.244;22.530;2023-08-08T03:36:44;2.92;;;2.50;;
56997;SDS011;42890;44.244;22.530;2023-08-08T03:39:10;8.00;;;3.10;;
56997;SDS011;42890;44.244;22.530;2023-08-08T03:41:36;2.72;;;2.40;;
56997;SDS011;42890;44.244;22.530;2023-08-08T03:44:02;4.80;;;2.03;;
56997;SDS011;42890;44.244;22.530;2023-08-08T03:46:29;3.17;;;2.20;;
56997;SDS011;42890;44.244;22.530;2023-08-08T03:48:55;4.93;;;2.42;;
56997;SDS011;42890;44.244;22.530;2023-08-08T03:51:21;5.28;;;2.22;;
56997;SDS011;42890;44.244;22.530;2023-08-08T03:53:47;2.40;;;2.10;;
56997;SDS011;42890;44.244;22.530;2023-08-08T03:56:13;2.90;;;2.05;;
56997;SDS011;42890;44.244;22.530;2023-08-08T03:58:39;2.25;;;1.85;;
56997;SDS011;42890;44.244;22.530;2023-08-08T04:01:06;4.88;;;1.83;;
56997;SDS011;42890;44.244;22.530;2023-08-08T04:03:32;3.70;;;1.88;;
56997;SDS011;42890;44.244;22.530;2023-08-08T04:05:58;2.53;;;2.33;;
56997;SDS011;42890;44.244;22.530;2023-08-08T04:08:24;2.95;;;2.30;;
56997;SDS011;42890;44.244;22.530;2023-08-08T04:10:50;5.50;;;2.70;;
56997;SDS011;42890;44.244;22.530;2023-08-08T04:13:17;3.38;;;2.40;;
56997;SDS011;42890;44.244;22.530;2023-08-08T04:15:43;9.38;;;2.25;;
56997;SDS011;42890;44.244;22.530;2023-08-08T04:18:10;4.20;;;2.20;;
56997;SDS011;42890;44.244;22.530;2023-08-08T04:20:36;8.98;;;2.40;;
56997;SDS011;42890;44.244;22.530;2023-08-08T04:23:02;1.90;;;1.80;;
56997;SDS011;42890;44.244;22.530;2023-08-08T04:25:28;1.75;;;1.50;;
56997;SDS011;42890;44.244;22.530;2023-08-08T04:27:54;3.38;;;1.88;;
56997;SDS011;42890;44.244;22.530;2023-08-08T04:30:20;1.70;;;1.60;;
56997;SDS011;42890;44.244;22.530;2023-08-08T04:32:47;1.52;;;1.42;;
56997;SDS011;42890;44.244;22.530;2023-08-08T04:35:14;3.72;;;1.50;;
56997;SDS011;42890;44.244;22.530;2023-08-08T04:37:40;2.75;;;1.23;;
56997;SDS011;42890;44.244;22.530;2023-08-08T04:40:07;6.28;;;1.50;;
56997;SDS011;42890;44.244;22.530;2023-08-08T04:42:33;2.40;;;1.20;;
56997;SDS011;42890;44.244;22.530;2023-08-08T04:44:59;2.80;;;1.30;;
56997;SDS011;42890;44.244;22.530;2023-08-08T04:47:25;2.58;;;1.30;;
56997;SDS011;42890;44.244;22.530;2023-08-08T04:49:51;1.48;;;1.38;;
56997;SDS011;42890;44.244;22.530;2023-08-08T04:52:18;3.63;;;1.05;;
56997;SDS011;42890;44.244;22.530;2023-08-08T04:54:44;2.15;;;1.20;;
56997;SDS011;42890;44.244;22.530;2023-08-08T04:57:10;2.97;;;1.17;;
56997;SDS011;42890;44.244;22.530;2023-08-08T04:59:36;1.48;;;1.02;;
56997;SDS011;42890;44.244;22.530;2023-08-08T05:02:02;2.28;;;1.23;;
56997;SDS011;42890;44.244;22.530;2023-08-08T05:04:29;1.08;;;1.08;;
56997;SDS011;42890;44.244;22.530;2023-08-08T05:06:55;1.95;;;1.00;;
56997;SDS011;42890;44.244;22.530;2023-08-08T05:09:22;2.03;;;1.10;;
56997;SDS011;42890;44.244;22.530;2023-08-08T05:11:52;4.03;;;0.95;;
56997;SDS011;42890;44.244;22.530;2023-08-08T05:14:18;2.50;;;1.33;;
56997;SDS011;42890;44.244;22.530;2023-08-08T05:16:44;3.90;;;0.93;;
56997;SDS011;42890;44.244;22.530;2023-08-08T05:19:10;1.88;;;1.10;;
56997;SDS011;42890;44.244;22.530;2023-08-08T05:21:36;2.33;;;1.17;;
56997;SDS011;42890;44.244;22.530;2023-08-08T05:24:02;1.17;;;1.00;;
56997;SDS011;42890;44.244;22.530;2023-08-08T05:26:29;3.50;;;1.20;;
56997;SDS011;42890;44.244;22.530;2023-08-08T05:28:56;0.93;;;0.80;;
56997;SDS011;42890;44.244;22.530;2023-08-08T05:31:22;1.13;;;1.00;;
56997;SDS011;42890;44.244;22.530;2023-08-08T05:33:48;4.15;;;1.33;;
56997;SDS011;42890;44.244;22.530;2023-08-08T05:36:14;1.58;;;1.20;;
56997;SDS011;42890;44.244;22.530;2023-08-08T05:38:40;3.80;;;1.20;;
56997;SDS011;42890;44.244;22.530;2023-08-08T05:41:07;1.63;;;1.10;;
56997;SDS011;42890;44.244;22.530;2023-08-08T05:43:33;3.35;;;1.20;;
56997;SDS011;42890;44.244;22.530;2023-08-08T05:46:00;1.90;;;1.10;;
56997;SDS011;42890;44.244;22.530;2023-08-08T05:48:26;2.20;;;0.90;;
56997;SDS011;42890;44.244;22.530;2023-08-08T05:50:52;3.13;;;1.10;;
56997;SDS011;42890;44.244;22.530;2023-08-08T05:53:19;1.30;;;1.20;;
56997;SDS011;42890;44.244;22.530;2023-08-08T05:55:45;1.42;;;1.00;;
56997;SDS011;42890;44.244;22.530;2023-08-08T05:58:11;2.97;;;1.10;;
56997;SDS011;42890;44.244;22.530;2023-08-08T06:00:37;2.22;;;1.05;;
56997;SDS011;42890;44.244;22.530;2023-08-08T06:03:03;5.82;;;1.00;;
56997;SDS011;42890;44.244;22.530;2023-08-08T06:05:29;0.88;;;0.88;;
56997;SDS011;42890;44.244;22.530;2023-08-08T06:07:56;1.48;;;0.90;;
56997;SDS011;42890;44.244;22.530;2023-08-08T06:10:22;1.90;;;1.25;;
56997;SDS011;42890;44.244;22.530;2023-08-08T06:12:48;2.00;;;1.10;;
56997;SDS011;42890;44.244;22.530;2023-08-08T06:15:14;2.92;;;1.13;;
56997;SDS011;42890;44.244;22.530;2023-08-08T06:17:40;3.13;;;1.20;;
56997;SDS011;42890;44.244;22.530;2023-08-08T06:20:06;1.67;;;1.27;;
56997;SDS011;42890;44.244;22.530;2023-08-08T06:22:34;2.75;;;0.90;;
56997;SDS011;42890;44.244;22.530;2023-08-08T06:25:00;2.15;;;1.10;;
56997;SDS011;42890;44.244;22.530;2023-08-08T06:27:26;1.95;;;1.20;;
56997;SDS011;42890;44.244;22.530;2023-08-08T06:29:53;2.53;;;1.25;;
56997;SDS011;42890;44.244;22.530;2023-08-08T06:32:21;2.63;;;1.13;;
56997;SDS011;42890;44.244;22.530;2023-08-08T06:34:48;3.88;;;1.30;;
56997;SDS011;42890;44.244;22.530;2023-08-08T06:37:14;4.50;;;1.10;;
56997;SDS011;42890;44.244;22.530;2023-08-08T06:39:40;1.55;;;1.15;;
56997;SDS011;42890;44.244;22.530;2023-08-08T06:42:07;2.30;;;1.20;;
56997;SDS011;42890;44.244;22.530;2023-08-08T06:44:33;1.75;;;1.17;;
56997;SDS011;42890;44.244;22.530;2023-08-08T06:46:59;2.40;;;1.20;;
56997;SDS011;42890;44.244;22.530;2023-08-08T06:49:25;1.92;;;1.10;;
56997;SDS011;42890;44.244;22.530;2023-08-08T06:51:51;2.38;;;1.25;;
56997;SDS011;42890;44.244;22.530;2023-08-08T06:54:17;2.08;;;1.23;;
56997;SDS011;42890;44.244;22.530;2023-08-08T06:56:44;1.80;;;1.70;;
56997;SDS011;42890;44.244;22.530;2023-08-08T06:59:10;3.45;;;1.70;;
56997;SDS011;42890;44.244;22.530;2023-08-08T07:01:36;10.80;;;9.90;;
56997;SDS011;42890;44.244;22.530;2023-08-08T07:04:02;17.35;;;4.28;;
56997;SDS011;42890;44.244;22.530;2023-08-08T07:06:28;1.92;;;1.73;;
56997;SDS011;42890;44.244;22.530;2023-08-08T07:08:54;3.58;;;1.90;;
56997;SDS011;42890;44.244;22.530;2023-08-08T07:11:21;2.65;;;1.90;;
56997;SDS011;42890;44.244;22.530;2023-08-08T07:13:47;2.45;;;1.80;;
56997;SDS011;42890;44.244;22.530;2023-08-08T07:16:13;1.52;;;1.42;;
56997;SDS011;42890;44.244;22.530;2023-08-08T07:18:39;2.22;;;1.73;;
56997;SDS011;42890;44.244;22.530;2023-08-08T07:21:05;1.52;;;1.42;;
56997;SDS011;42890;44.244;22.530;2023-08-08T07:23:31;2.00;;;1.50;;
56997;SDS011;42890;44.244;22.530;2023-08-08T07:25:57;2.08;;;1.40;;
56997;SDS011;42890;44.244;22.530;2023-08-08T07:28:24;1.70;;;1.55;;
56997;SDS011;42890;44.244;22.530;2023-08-08T07:30:50;5.43;;;1.80;;
56997;SDS011;42890;44.244;22.530;2023-08-08T07:33:16;2.83;;;1.98;;
56997;SDS011;42890;44.244;22.530;2023-08-08T07:35:42;1.70;;;1.55;;
56997;SDS011;42890;44.244;22.530;2023-08-08T07:38:08;1.88;;;1.60;;
56997;SDS011;42890;44.244;22.530;2023-08-08T07:40:34;2.13;;;1.70;;
56997;SDS011;42890;44.244;22.530;2023-08-08T07:43:01;1.73;;;1.55;;
56997;SDS011;42890;44.244;22.530;2023-08-08T07:45:27;4.05;;;1.73;;
56997;SDS011;42890;44.244;22.530;2023-08-08T07:47:53;4.40;;;3.92;;
56997;SDS011;42890;44.244;22.530;2023-08-08T07:50:20;1.77;;;1.67;;
56997;SDS011;42890;44.244;22.530;2023-08-08T07:52:46;7.55;;;5.70;;
56997;SDS011;42890;44.244;22.530;2023-08-08T07:55:12;5.35;;;3.47;;
56997;SDS011;42890;44.244;22.530;2023-08-08T07:57:38;2.35;;;2.10;;
56997;SDS011;42890;44.244;22.530;2023-08-08T08:00:04;1.67;;;1.58;;
56997;SDS011;42890;44.244;22.530;2023-08-08T08:02:36;3.27;;;1.70;;
56997;SDS011;42890;44.244;22.530;2023-08-08T08:05:02;3.38;;;1.70;;
56997;SDS011;42890;44.244;22.530;2023-08-08T08:07:33;1.67;;;1.58;;
56997;SDS011;42890;44.244;22.530;2023-08-08T08:10:00;1.30;;;1.30;;
56997;SDS011;42890;44.244;22.530;2023-08-08T08:12:26;2.15;;;1.60;;
56997;SDS011;42890;44.244;22.530;2023-08-08T08:14:52;3.30;;;1.20;;
56997;SDS011;42890;44.244;22.530;2023-08-08T08:17:18;1.67;;;1.50;;
56997;SDS011;42890;44.244;22.530;2023-08-08T08:19:45;1.83;;;1.60;;
56997;SDS011;42890;44.244;22.530;2023-08-08T08:22:11;2.28;;;2.08;;
56997;SDS011;42890;44.244;22.530;2023-08-08T08:24:37;1.50;;;1.40;;
56997;SDS011;42890;44.244;22.530;2023-08-08T08:27:03;9.38;;;1.98;;
56997;SDS011;42890;44.244;22.530;2023-08-08T08:29:29;2.45;;;1.70;;
56997;SDS011;42890;44.244;22.530;2023-08-08T08:31:56;2.33;;;1.52;;
56997;SDS011;42890;44.244;22.530;2023-08-08T08:34:22;1.63;;;1.50;;
56997;SDS011;42890;44.244;22.530;2023-08-08T08:36:48;1.50;;;1.40;;
56997;SDS011;42890;44.244;22.530;2023-08-08T08:39:15;1.63;;;1.52;;
56997;SDS011;42890;44.244;22.530;2023-08-08T08:41:41;29.38;;;1.85;;
56997;SDS011;42890;44.244;22.530;2023-08-08T08:44:07;2.08;;;1.40;;
56997;SDS011;42890;44.244;22.530;2023-08-08T08:46:34;1.55;;;1.45;;
56997;SDS011;42890;44.244;22.530;2023-08-08T08:49:05;1.63;;;1.52;;
56997;SDS011;42890;44.244;22.530;2023-08-08T08:51:33;3.25;;;1.20;;
56997;SDS011;42890;44.244;22.530;2023-08-08T08:53:59;4.18;;;1.75;;
56997;SDS011;42890;44.244;22.530;2023-08-08T08:56:26;3.55;;;1.65;;
56997;SDS011;42890;44.244;22.530;2023-08-08T08:58:52;3.45;;;1.67;;
56997;SDS011;42890;44.244;22.530;2023-08-08T09:01:18;1.85;;;1.30;;
56997;SDS011;42890;44.244;22.530;2023-08-08T09:03:44;1.45;;;1.30;;
56997;SDS011;42890;44.244;22.530;2023-08-08T09:06:11;3.05;;;1.67;;
56997;SDS011;42890;44.244;22.530;2023-08-08T09:08:38;7.65;;;2.00;;
56997;SDS011;42890;44.244;22.530;2023-08-08T09:11:04;3.17;;;1.83;;
56997;SDS011;42890;44.244;22.530;2023-08-08T09:13:39;2.08;;;1.10;;
56997;SDS011;42890;44.244;22.530;2023-08-08T09:16:06;1.10;;;1.10;;
56997;SDS011;42890;44.244;22.530;2023-08-08T09:18:33;1.13;;;0.90;;
56997;SDS011;42890;44.244;22.530;2023-08-08T09:20:59;1.00;;;1.00;;
56997;SDS011;42890;44.244;22.530;2023-08-08T09:23:25;1.75;;;1.25;;
56997;SDS011;42890;44.244;22.530;2023-08-08T09:25:52;1.80;;;1.30;;
56997;SDS011;42890;44.244;22.530;2023-08-08T09:28:18;1.98;;;1.10;;
56997;SDS011;42890;44.244;22.530;2023-08-08T09:30:44;3.55;;;1.10;;
56997;SDS011;42890;44.244;22.530;2023-08-08T09:33:11;1.13;;;0.70;;
56997;SDS011;42890;44.244;22.530;2023-08-08T09:35:40;0.98;;;0.90;;
56997;SDS011;42890;44.244;22.530;2023-08-08T09:38:06;0.85;;;0.80;;
56997;SDS011;42890;44.244;22.530;2023-08-08T09:40:33;0.98;;;0.88;;
56997;SDS011;42890;44.244;22.530;2023-08-08T09:42:59;0.70;;;0.70;;
56997;SDS011;42890;44.244;22.530;2023-08-08T09:45:25;2.42;;;0.98;;
56997;SDS011;42890;44.244;22.530;2023-08-08T09:47:51;1.52;;;0.70;;
56997;SDS011;42890;44.244;22.530;2023-08-08T09:50:18;3.22;;;0.65;;
56997;SDS011;42890;44.244;22.530;2023-08-08T09:52:45;1.35;;;0.73;;
56997;SDS011;42890;44.244;22.530;2023-08-08T09:55:11;1.63;;;1.23;;
56997;SDS011;42890;44.244;22.530;2023-08-08T09:57:40;4.90;;;1.30;;
56997;SDS011;42890;44.244;22.530;2023-08-08T10:00:07;3.90;;;0.90;;
56997;SDS011;42890;44.244;22.530;2023-08-08T10:02:43;4.20;;;1.85;;
56997;SDS011;42890;44.244;22.530;2023-08-08T10:05:09;3.15;;;1.30;;
56997;SDS011;42890;44.244;22.530;2023-08-08T10:07:38;1.50;;;0.90;;
56997;SDS011;42890;44.244;22.530;2023-08-08T10:10:06;0.95;;;0.60;;
56997;SDS011;42890;44.244;22.530;2023-08-08T10:12:32;5.22;;;1.15;;
56997;SDS011;42890;44.244;22.530;2023-08-08T10:14:58;2.25;;;0.82;;
56997;SDS011;42890;44.244;22.530;2023-08-08T10:17:24;5.20;;;0.88;;
56997;SDS011;42890;44.244;22.530;2023-08-08T10:19:54;1.80;;;0.80;;
56997;SDS011;42890;44.244;22.530;2023-08-08T10:22:22;1.40;;;1.23;;
56997;SDS011;42890;44.244;22.530;2023-08-08T10:24:50;2.58;;;2.00;;
56997;SDS011;42890;44.244;22.530;2023-08-08T10:27:26;1.60;;;1.50;;
56997;SDS011;42890;44.244;22.530;2023-08-08T10:29:53;1.20;;;1.10;;
56997;SDS011;42890;44.244;22.530;2023-08-08T10:32:23;1.05;;;0.73;;
56997;SDS011;42890;44.244;22.530;2023-08-08T10:34:50;0.70;;;0.70;;
56997;SDS011;42890;44.244;22.530;2023-08-08T10:37:22;1.40;;;1.30;;
56997;SDS011;42890;44.244;22.530;2023-08-08T10:39:55;0.70;;;0.70;;
56997;SDS011;42890;44.244;22.530;2023-08-08T10:42:23;5.38;;;1.20;;
56997;SDS011;42890;44.244;22.530;2023-08-08T10:44:57;0.75;;;0.65;;
56997;SDS011;42890;44.244;22.530;2023-08-08T10:47:24;1.98;;;1.30;;
56997;SDS011;42890;44.244;22.530;2023-08-08T10:50:03;1.33;;;1.23;;
56997;SDS011;42890;44.244;22.530;2023-08-08T10:52:32;5.25;;;1.00;;
56997;SDS011;42890;44.244;22.530;2023-08-08T10:55:00;0.60;;;0.60;;
56997;SDS011;42890;44.244;22.530;2023-08-08T10:57:27;1.02;;;0.98;;
56997;SDS011;42890;44.244;22.530;2023-08-08T10:59:54;1.58;;;1.48;;
56997;SDS011;42890;44.244;22.530;2023-08-08T11:02:20;1.38;;;1.15;;
56997;SDS011;42890;44.244;22.530;2023-08-08T11:04:47;4.65;;;0.75;;
56997;SDS011;42890;44.244;22.530;2023-08-08T11:07:15;0.55;;;0.55;;
56997;SDS011;42890;44.244;22.530;2023-08-08T11:09:42;2.08;;;1.30;;
56997;SDS011;42890;44.244;22.530;2023-08-08T11:12:15;0.85;;;0.70;;
56997;SDS011;42890;44.244;22.530;2023-08-08T11:17:07;1.77;;;1.30;;
56997;SDS011;42890;44.244;22.530;2023-08-08T11:19:38;0.98;;;0.95;;
56997;SDS011;42890;44.244;22.530;2023-08-08T11:22:08;0.60;;;0.60;;
56997;SDS011;42890;44.244;22.530;2023-08-08T11:24:35;3.60;;;1.15;;
56997;SDS011;42890;44.244;22.530;2023-08-08T11:27:01;2.45;;;0.60;;
56997;SDS011;42890;44.244;22.530;2023-08-08T11:29:27;0.82;;;0.70;;
56997;SDS011;42890;44.244;22.530;2023-08-08T11:31:56;1.27;;;0.80;;
56997;SDS011;42890;44.244;22.530;2023-08-08T11:34:22;2.40;;;0.70;;
56997;SDS011;42890;44.244;22.530;2023-08-08T11:36:48;1.42;;;0.60;;
56997;SDS011;42890;44.244;22.530;2023-08-08T11:39:15;0.50;;;0.50;;
56997;SDS011;42890;44.244;22.530;2023-08-08T11:41:41;0.65;;;0.60;;
56997;SDS011;42890;44.244;22.530;2023-08-08T11:44:08;1.05;;;0.70;;
56997;SDS011;42890;44.244;22.530;2023-08-08T11:46:34;0.60;;;0.57;;
56997;SDS011;42890;44.244;22.530;2023-08-08T11:49:04;0.93;;;0.70;;
56997;SDS011;42890;44.244;22.530;2023-08-08T11:51:31;0.60;;;0.60;;
56997;SDS011;42890;44.244;22.530;2023-08-08T11:53:58;0.85;;;0.70;;
56997;SDS011;42890;44.244;22.530;2023-08-08T11:56:25;0.70;;;0.57;;
56997;SDS011;42890;44.244;22.530;2023-08-08T11:58:51;0.70;;;0.70;;
56997;SDS011;42890;44.244;22.530;2023-08-08T12:01:25;1.00;;;0.80;;
56997;SDS011;42890;44.244;22.530;2023-08-08T12:03:51;2.45;;;0.95;;
56997;SDS011;42890;44.244;22.530;2023-08-08T12:06:17;0.60;;;0.50;;
56997;SDS011;42890;44.244;22.530;2023-08-08T12:08:44;3.22;;;0.70;;
56997;SDS011;42890;44.244;22.530;2023-08-08T12:11:11;3.85;;;0.60;;
56997;SDS011;42890;44.244;22.530;2023-08-08T12:13:42;0.70;;;0.70;;
56997;SDS011;42890;44.244;22.530;2023-08-08T12:16:10;0.60;;;0.57;;
56997;SDS011;42890;44.244;22.530;2023-08-08T12:18:37;1.10;;;0.70;;
56997;SDS011;42890;44.244;22.530;2023-08-08T12:21:07;0.65;;;0.50;;
56997;SDS011;42890;44.244;22.530;2023-08-08T12:23:35;0.70;;;0.60;;
56997;SDS011;42890;44.244;22.530;2023-08-08T12:26:04;0.88;;;0.70;;
56997;SDS011;42890;44.244;22.530;2023-08-08T12:28:31;1.10;;;0.90;;
56997;SDS011;42890;44.244;22.530;2023-08-08T12:30:57;0.70;;;0.70;;
56997;SDS011;42890;44.244;22.530;2023-08-08T12:33:23;2.92;;;0.75;;
56997;SDS011;42890;44.244;22.530;2023-08-08T12:35:50;0.82;;;0.50;;
56997;SDS011;42890;44.244;22.530;2023-08-08T12:38:16;1.02;;;0.70;;
56997;SDS011;42890;44.244;22.530;2023-08-08T12:40:42;10.43;;;1.50;;
56997;SDS011;42890;44.244;22.530;2023-08-08T12:43:09;1.65;;;0.70;;
56997;SDS011;42890;44.244;22.530;2023-08-08T12:45:38;1.77;;;0.60;;
56997;SDS011;42890;44.244;22.530;2023-08-08T12:48:05;0.65;;;0.55;;
56997;SDS011;42890;44.244;22.530;2023-08-08T12:50:31;1.20;;;0.73;;
56997;SDS011;42890;44.244;22.530;2023-08-08T12:52:58;0.80;;;0.70;;
56997;SDS011;42890;44.244;22.530;2023-08-08T12:55:25;0.75;;;0.57;;
56997;SDS011;42890;44.244;22.530;2023-08-08T12:57:51;0.73;;;0.70;;
56997;SDS011;42890;44.244;22.530;2023-08-08T13:00:17;0.60;;;0.60;;
56997;SDS011;42890;44.244;22.530;2023-08-08T13:02:44;0.70;;;0.63;;
56997;SDS011;42890;44.244;22.530;2023-08-08T13:05:10;8.95;;;0.73;;
56997;SDS011;42890;44.244;22.530;2023-08-08T13:07:36;0.40;;;0.40;;
56997;SDS011;42890;44.244;22.530;2023-08-08T13:10:03;1.92;;;0.68;;
56997;SDS011;42890;44.244;22.530;2023-08-08T13:12:30;0.57;;;0.57;;
56997;SDS011;42890;44.244;22.530;2023-08-08T13:14:56;1.60;;;0.60;;
56997;SDS011;42890;44.244;22.530;2023-08-08T13:17:22;2.28;;;0.65;;
56997;SDS011;42890;44.244;22.530;2023-08-08T13:19:48;0.80;;;0.60;;
56997;SDS011;42890;44.244;22.530;2023-08-08T13:22:14;0.43;;;0.43;;
56997;SDS011;42890;44.244;22.530;2023-08-08T13:24:40;18.98;;;0.80;;
56997;SDS011;42890;44.244;22.530;2023-08-08T13:27:06;2.65;;;0.90;;
56997;SDS011;42890;44.244;22.530;2023-08-08T13:29:33;2.78;;;0.93;;
56997;SDS011;42890;44.244;22.530;2023-08-08T13:31:59;0.52;;;0.43;;
56997;SDS011;42890;44.244;22.530;2023-08-08T13:34:25;0.60;;;0.60;;
56997;SDS011;42890;44.244;22.530;2023-08-08T13:36:51;2.25;;;0.77;;
56997;SDS011;42890;44.244;22.530;2023-08-08T13:39:17;0.60;;;0.60;;
56997;SDS011;42890;44.244;22.530;2023-08-08T13:41:44;0.40;;;0.40;;
56997;SDS011;42890;44.244;22.530;2023-08-08T13:44:10;1.13;;;0.70;;
56997;SDS011;42890;44.244;22.530;2023-08-08T13:46:36;2.17;;;1.02;;
56997;SDS011;42890;44.244;22.530;2023-08-08T13:49:02;0.55;;;0.50;;
56997;SDS011;42890;44.244;22.530;2023-08-08T13:51:28;1.55;;;0.80;;
56997;SDS011;42890;44.244;22.530;2023-08-08T13:53:54;0.70;;;0.60;;
56997;SDS011;42890;44.244;22.530;2023-08-08T13:56:20;1.27;;;0.55;;
56997;SDS011;42890;44.244;22.530;2023-08-08T13:58:47;0.60;;;0.60;;
56997;SDS011;42890;44.244;22.530;2023-08-08T14:01:13;2.40;;;0.75;;
56997;SDS011;42890;44.244;22.530;2023-08-08T14:03:39;1.48;;;0.80;;
56997;SDS011;42890;44.244;22.530;2023-08-08T14:06:05;1.25;;;0.85;;
56997;SDS011;42890;44.244;22.530;2023-08-08T14:08:32;0.95;;;0.70;;
56997;SDS011;42890;44.244;22.530;2023-08-08T14:10:58;0.82;;;0.50;;
56997;SDS011;42890;44.244;22.530;2023-08-08T14:13:24;1.27;;;0.68;;
56997;SDS011;42890;44.244;22.530;2023-08-08T14:15:50;0.52;;;0.52;;
56997;SDS011;42890;44.244;22.530;2023-08-08T14:18:17;0.57;;;0.55;;
56997;SDS011;42890;44.244;22.530;2023-08-08T14:20:43;1.83;;;0.50;;
56997;SDS011;42890;44.244;22.530;2023-08-08T14:23:09;1.15;;;0.70;;
56997;SDS011;42890;44.244;22.530;2023-08-08T14:25:35;1.15;;;0.70;;
56997;SDS011;42890;44.244;22.530;2023-08-08T14:28:01;0.65;;;0.65;;
56997;SDS011;42890;44.244;22.530;2023-08-08T14:30:29;0.70;;;0.70;;
56997;SDS011;42890;44.244;22.530;2023-08-08T14:32:55;3.60;;;0.70;;
56997;SDS011;42890;44.244;22.530;2023-08-08T14:35:21;1.38;;;0.73;;